Time;durP1;ratioP1;P1;durP2;ratioP2;P2;SDS_P1;SDS_P2;PMS_P1;PMS_P2;Temp;Humidity;BMP_temperature;BMP_pressure;BME280_temperature;BME280_humidity;BME280_pressure;Samples;Min_cycle;Max_cycle;Signal;HPM_P1;HPM_P2
2021/12/24 00:00:50;;;;;;;111.90;29.52;;;5.10;99.90;;;;;;5057370;28;20102;-70
2021/12/24 00:03:17;;;;;;;104.28;31.73;;;5.10;99.90;;;;;;5055738;28;20052;-71
2021/12/24 00:05:43;;;;;;;118.95;31.23;;;5.30;99.90;;;;;;5058792;28;20111;-71
2021/12/24 00:08:09;;;;;;;103.85;30.58;;;5.10;99.90;;;;;;5074455;28;20056;-71
2021/12/24 00:10:36;;;;;;;117.53;33.65;;;5.20;99.90;;;;;;5091750;28;20106;-71
2021/12/24 00:13:10;;;;;;;126.68;33.78;;;5.30;99.90;;;;;;5055668;28;20101;-70
2021/12/24 00:18:25;;;;;;;104.07;29.08;;;5.30;99.90;;;;;;5091600;28;20049;-70
2021/12/24 00:22:14;;;;;;;108.45;30.85;;;5.30;99.90;;;;;;5056815;28;20037;-71
2021/12/24 00:37:29;;;;;;;104.03;29.73;;;5.50;99.90;;;;;;5036707;28;20037;-70
2021/12/24 00:42:21;;;;;;;105.18;30.23;;;5.50;99.90;;;;;;5036451;28;20579;-70
2021/12/24 00:44:46;;;;;;;99.80;28.65;;;5.60;99.90;;;;;;5070915;28;20049;-70
2021/12/24 00:47:12;;;;;;;88.15;30.08;;;5.70;99.90;;;;;;5069052;28;20051;-69
2021/12/24 00:49:38;;;;;;;94.28;28.27;;;5.70;99.90;;;;;;5038173;28;20056;-70
2021/12/24 00:52:19;;;;;;;81.22;25.92;;;5.70;99.90;;;;;;5037673;28;20052;-70
2021/12/24 00:55:06;;;;;;;81.20;25.65;;;5.70;99.90;;;;;;5036690;28;20051;-70
2021/12/24 00:57:37;;;;;;;78.15;25.30;;;5.70;99.90;;;;;;5037969;28;20061;-70
2021/12/24 01:00:10;;;;;;;83.97;28.33;;;5.70;99.90;;;;;;5036787;28;20120;-70
2021/12/24 01:02:36;;;;;;;76.55;24.80;;;5.70;99.90;;;;;;5069801;28;20051;-70
2021/12/24 01:05:04;;;;;;;75.43;24.55;;;5.70;99.90;;;;;;5038387;28;20120;-70
2021/12/24 01:07:30;;;;;;;66.20;23.50;;;5.70;99.90;;;;;;5068697;28;20620;-70
2021/12/24 01:09:56;;;;;;;72.72;23.98;;;5.80;99.90;;;;;;5038868;28;20045;-70
2021/12/24 01:12:23;;;;;;;71.53;22.40;;;5.80;99.90;;;;;;5035777;28;20045;-71
2021/12/24 01:14:49;;;;;;;59.80;21.73;;;5.80;99.90;;;;;;5037319;28;20148;-71
2021/12/24 01:20:10;;;;;;;58.90;21.27;;;5.80;99.90;;;;;;5037262;28;20057;-70
2021/12/24 01:38:35;;;;;;;52.75;18.70;;;6.00;99.90;;;;;;5035860;28;20057;-71
2021/12/24 01:43:28;;;;;;;47.55;18.15;;;6.00;99.90;;;;;;5036195;28;20414;-70
2021/12/24 01:45:56;;;;;;;43.40;17.02;;;6.30;99.90;;;;;;5068251;28;20076;-71
2021/12/24 01:48:23;;;;;;;45.47;17.15;;;6.10;99.90;;;;;;5069957;28;20055;-70
2021/12/24 01:50:50;;;;;;;45.58;18.58;;;6.10;99.90;;;;;;5067626;28;20049;-71
2021/12/24 01:53:19;;;;;;;41.95;18.58;;;6.10;99.90;;;;;;5041710;28;20057;-70
2021/12/24 01:55:47;;;;;;;43.65;16.17;;;6.10;99.90;;;;;;5071981;28;20064;-70
2021/12/24 01:58:13;;;;;;;41.38;17.52;;;6.20;99.90;;;;;;5039990;28;20053;-70
2021/12/24 02:00:42;;;;;;;39.58;16.70;;;6.20;99.90;;;;;;5041454;28;20038;-71
2021/12/24 02:03:10;;;;;;;36.95;15.60;;;6.20;99.90;;;;;;5055318;28;20060;-71
2021/12/24 02:05:37;;;;;;;38.85;16.75;;;6.30;99.90;;;;;;5042174;28;20574;-70
2021/12/24 02:08:03;;;;;;;38.40;15.95;;;6.20;99.90;;;;;;5038142;28;20057;-70
2021/12/24 02:10:30;;;;;;;41.63;16.42;;;6.20;99.90;;;;;;5074019;28;20065;-71
2021/12/24 02:12:56;;;;;;;36.42;16.50;;;6.20;99.90;;;;;;5039787;28;20037;-71
2021/12/24 02:15:40;;;;;;;32.08;14.45;;;6.20;99.90;;;;;;5039617;28;20045;-70
2021/12/24 02:29:09;;;;;;;31.02;14.25;;;6.50;99.90;;;;;;5016398;28;20998;-71
2021/12/24 02:31:35;;;;;;;40.47;15.30;;;6.60;99.90;;;;;;5056375;28;20076;-70
2021/12/24 02:34:01;;;;;;;33.58;13.93;;;6.50;99.90;;;;;;5070726;28;20073;-71
2021/12/24 02:36:28;;;;;;;33.50;13.07;;;6.60;99.90;;;;;;5040545;28;20046;-70
2021/12/24 02:38:54;;;;;;;32.95;13.73;;;6.50;99.90;;;;;;5038674;28;20528;-70
2021/12/24 02:41:20;;;;;;;31.98;13.88;;;6.50;99.90;;;;;;5040037;28;20061;-70
2021/12/24 02:43:47;;;;;;;26.98;12.90;;;6.50;99.90;;;;;;5040902;28;20047;-71
2021/12/24 02:46:26;;;;;;;33.22;12.68;;;6.50;99.90;;;;;;5039282;28;20042;-71
2021/12/24 02:54:10;;;;;;;27.00;11.85;;;6.70;99.90;;;;;;5038531;28;20105;-71
2021/12/24 02:56:38;;;;;;;22.55;10.50;;;6.70;99.90;;;;;;5072888;28;20049;-72
2021/12/24 02:59:14;;;;;;;25.23;12.00;;;6.70;99.90;;;;;;5070459;28;20037;-71
2021/12/24 03:01:43;;;;;;;24.67;11.57;;;6.60;99.90;;;;;;5041152;28;20062;-71
2021/12/24 03:04:09;;;;;;;24.55;9.95;;;6.70;99.90;;;;;;5036285;28;20046;-70
2021/12/24 03:06:42;;;;;;;20.77;9.85;;;6.80;99.90;;;;;;5040012;28;20068;-72
2021/12/24 03:09:12;;;;;;;21.77;10.75;;;6.80;99.90;;;;;;5039859;28;20041;-71
2021/12/24 03:11:38;;;;;;;25.50;11.30;;;6.80;99.90;;;;;;5037648;28;20061;-71
2021/12/24 03:14:06;;;;;;;22.05;9.65;;;6.80;99.90;;;;;;5072520;28;20050;-71
2021/12/24 03:16:32;;;;;;;21.33;9.32;;;6.90;99.90;;;;;;5038009;28;20056;-71
2021/12/24 03:18:58;;;;;;;22.50;9.88;;;6.90;99.90;;;;;;5055812;28;20048;-70
2021/12/24 03:21:39;;;;;;;20.00;10.65;;;7.00;99.90;;;;;;5038012;28;20041;-70
2021/12/24 03:24:34;;;;;;;22.40;9.95;;;7.00;99.90;;;;;;5040354;28;20065;-71
2021/12/24 03:26:51;;;;;;;20.38;10.70;;;7.10;99.90;;;;;;5040282;28;20085;-71
2021/12/24 03:29:18;;;;;;;22.00;10.45;;;7.30;99.90;;;;;;5069822;28;20053;-70
2021/12/24 03:31:46;;;;;;;21.40;9.68;;;7.30;99.90;;;;;;5072298;28;20053;-71
2021/12/24 03:34:16;;;;;;;25.55;10.32;;;7.30;99.90;;;;;;5038000;28;20069;-71
2021/12/24 03:36:42;;;;;;;24.17;10.00;;;7.30;99.90;;;;;;5055563;28;20081;-71
2021/12/24 03:39:11;;;;;;;22.77;10.93;;;7.40;99.90;;;;;;5039327;28;20471;-69
2021/12/24 03:41:37;;;;;;;21.13;10.25;;;7.40;99.90;;;;;;5070432;28;20037;-71
2021/12/24 03:44:03;;;;;;;28.30;12.27;;;7.40;99.90;;;;;;5039413;28;20045;-71
2021/12/24 03:46:38;;;;;;;25.77;11.23;;;7.40;99.90;;;;;;5019545;28;20042;-74
2021/12/24 03:49:14;;;;;;;24.63;10.68;;;7.40;99.90;;;;;;5023589;28;20053;-71
2021/12/24 03:52:02;;;;;;;22.70;10.68;;;7.50;99.90;;;;;;5038246;28;20045;-70
2021/12/24 03:57:12;;;;;;;22.02;9.40;;;7.60;99.90;;;;;;5040093;28;20038;-71
2021/12/24 03:59:37;;;;;;;24.40;10.52;;;7.70;99.90;;;;;;5035699;28;20045;-71
2021/12/24 04:02:03;;;;;;;20.52;9.50;;;7.70;99.90;;;;;;5039833;28;20100;-71
2021/12/24 04:04:29;;;;;;;19.80;10.43;;;7.70;99.90;;;;;;5038294;28;20049;-71
2021/12/24 04:06:55;;;;;;;18.33;9.00;;;7.70;99.90;;;;;;5038813;28;20109;-71
2021/12/24 04:09:23;;;;;;;20.88;8.20;;;7.70;99.90;;;;;;5038032;28;20079;-70
2021/12/24 04:11:49;;;;;;;16.42;8.55;;;7.60;99.90;;;;;;5020209;28;20539;-71
2021/12/24 04:14:15;;;;;;;21.05;8.88;;;7.70;99.90;;;;;;5037631;28;20045;-70
2021/12/24 04:16:41;;;;;;;18.05;8.57;;;7.70;99.90;;;;;;5035656;28;20045;-71
2021/12/24 04:24:53;;;;;;;22.48;8.77;;;7.70;99.90;;;;;;5036706;28;20058;-73
2021/12/24 04:27:30;;;;;;;23.75;9.60;;;7.70;99.90;;;;;;5039649;28;20054;-70
2021/12/24 04:30:18;;;;;;;22.20;10.85;;;7.80;99.90;;;;;;5068931;28;20052;-70
2021/12/24 04:35:30;;;;;;;17.85;8.65;;;7.90;99.90;;;;;;5037973;28;20053;-70
2021/12/24 04:51:46;;;;;;;31.45;12.40;;;8.00;99.90;;;;;;5035690;28;20049;-71
2021/12/24 05:06:09;;;;;;;31.08;13.23;;;8.00;99.90;;;;;;5038838;28;20041;-73
2021/12/24 05:08:14;;;;;;;29.27;12.17;;;8.10;99.90;;;;;;5032125;28;20045;-71
2021/12/24 05:10:41;;;;;;;24.70;11.18;;;8.10;99.90;;;;;;5038753;28;20033;-72
2021/12/24 05:13:11;;;;;;;22.27;10.32;;;8.10;99.90;;;;;;5069042;28;20056;-70
2021/12/24 05:15:38;;;;;;;27.98;12.75;;;8.10;99.90;;;;;;5037443;28;20484;-72
2021/12/24 05:18:17;;;;;;;27.40;12.82;;;8.10;99.90;;;;;;5037115;28;20611;-72
2021/12/24 05:23:28;;;;;;;31.35;13.45;;;8.00;99.90;;;;;;5038226;28;20053;-70
2021/12/24 05:25:53;;;;;;;34.65;15.23;;;8.10;99.90;;;;;;5019621;28;20059;-70
2021/12/24 05:28:20;;;;;;;30.85;12.50;;;8.10;99.90;;;;;;5023623;28;20099;-73
2021/12/24 05:30:47;;;;;;;26.25;10.55;;;8.10;99.90;;;;;;5074489;28;20037;-71
2021/12/24 05:33:15;;;;;;;21.67;10.32;;;8.00;99.90;;;;;;5055541;28;20049;-73
2021/12/24 05:35:42;;;;;;;24.33;11.85;;;8.10;99.90;;;;;;5042410;28;20053;-75
2021/12/24 05:38:08;;;;;;;26.45;12.07;;;8.10;99.90;;;;;;5071205;28;20050;-72
2021/12/24 05:40:34;;;;;;;27.80;11.15;;;8.10;99.90;;;;;;5041114;28;20128;-71
2021/12/24 05:42:59;;;;;;;27.08;13.10;;;8.10;99.90;;;;;;5040150;28;20088;-72
2021/12/24 05:45:25;;;;;;;28.92;11.82;;;8.10;99.90;;;;;;5040372;28;20042;-73
2021/12/24 05:47:51;;;;;;;27.95;12.48;;;8.10;99.90;;;;;;5040811;28;20045;-73
2021/12/24 05:50:18;;;;;;;25.83;10.90;;;8.10;99.90;;;;;;5022011;28;20049;-73
2021/12/24 05:52:44;;;;;;;27.45;11.52;;;8.10;99.90;;;;;;5073700;28;20888;-72
2021/12/24 05:55:10;;;;;;;30.30;12.52;;;8.10;99.90;;;;;;5071487;28;20069;-71
2021/12/24 05:57:36;;;;;;;34.33;14.48;;;8.10;99.90;;;;;;5042275;28;20105;-73
2021/12/24 06:00:06;;;;;;;29.67;12.30;;;8.10;99.90;;;;;;5072217;28;20045;-72
2021/12/24 06:02:34;;;;;;;27.67;12.52;;;8.20;99.90;;;;;;5039724;28;20054;-73
2021/12/24 06:04:59;;;;;;;32.80;15.27;;;8.10;99.90;;;;;;5023717;28;20094;-73
2021/12/24 06:07:25;;;;;;;24.63;10.68;;;8.10;99.90;;;;;;5055226;28;20143;-72
2021/12/24 06:09:51;;;;;;;34.05;13.27;;;8.10;99.90;;;;;;5041997;28;20091;-72
2021/12/24 06:12:16;;;;;;;30.95;14.20;;;8.10;99.90;;;;;;5054727;28;20137;-73
2021/12/24 06:14:45;;;;;;;28.17;12.75;;;8.10;99.90;;;;;;5041982;28;20398;-70
2021/12/24 06:17:15;;;;;;;32.60;13.10;;;8.20;99.90;;;;;;5038660;28;20049;-73
2021/12/24 06:19:42;;;;;;;30.85;13.35;;;8.20;99.90;;;;;;5073220;28;20100;-71
2021/12/24 06:22:08;;;;;;;22.92;10.48;;;8.20;99.90;;;;;;5040267;28;20055;-73
2021/12/24 06:24:34;;;;;;;28.92;11.27;;;8.10;99.90;;;;;;5038642;28;20071;-73
2021/12/24 06:27:00;;;;;;;26.95;11.70;;;8.20;99.90;;;;;;5040458;28;20061;-72
2021/12/24 06:29:26;;;;;;;22.35;10.18;;;8.10;99.90;;;;;;5037877;28;20063;-71
2021/12/24 06:31:52;;;;;;;27.65;10.88;;;8.20;99.90;;;;;;5041644;28;20518;-72
2021/12/24 06:34:19;;;;;;;23.27;10.02;;;8.20;99.90;;;;;;5039293;28;20050;-71
2021/12/24 06:36:47;;;;;;;29.35;11.68;;;8.20;99.90;;;;;;5039580;28;20401;-71
2021/12/24 06:39:13;;;;;;;26.85;11.48;;;8.20;99.90;;;;;;5040079;28;20041;-71
2021/12/24 06:41:39;;;;;;;23.30;11.10;;;8.20;99.90;;;;;;5037562;28;20041;-72
2021/12/24 06:44:09;;;;;;;28.42;11.43;;;8.20;99.90;;;;;;5073209;28;20531;-70
2021/12/24 06:46:34;;;;;;;30.23;11.70;;;8.10;99.90;;;;;;5070500;28;20049;-72
2021/12/24 06:49:00;;;;;;;24.95;10.50;;;8.20;99.90;;;;;;5040205;28;20041;-72
2021/12/24 06:51:27;;;;;;;29.33;10.52;;;8.10;99.90;;;;;;5038839;28;20048;-71
2021/12/24 06:53:54;;;;;;;22.60;8.55;;;8.10;99.90;;;;;;5039644;28;20528;-72
2021/12/24 06:56:19;;;;;;;26.17;9.73;;;8.20;99.90;;;;;;5040375;28;20100;-72
2021/12/24 06:58:45;;;;;;;27.75;11.40;;;8.20;99.90;;;;;;5037595;28;20073;-71
2021/12/24 07:01:11;;;;;;;20.90;9.25;;;8.20;99.90;;;;;;5072876;28;20053;-73
2021/12/24 07:03:37;;;;;;;24.10;9.32;;;8.10;99.90;;;;;;5038234;28;20093;-72
2021/12/24 07:06:04;;;;;;;18.30;8.25;;;8.10;99.90;;;;;;5039827;28;20041;-72
2021/12/24 07:08:30;;;;;;;22.33;8.18;;;8.10;99.90;;;;;;5038853;28;20044;-70
2021/12/24 07:10:56;;;;;;;22.60;9.30;;;8.10;99.90;;;;;;5038469;28;20060;-72
2021/12/24 07:13:22;;;;;;;23.52;11.13;;;8.10;99.90;;;;;;5038599;28;20053;-69
2021/12/24 07:15:48;;;;;;;20.60;10.27;;;8.10;99.90;;;;;;5038659;28;20049;-70
2021/12/24 07:18:14;;;;;;;22.98;9.27;;;8.00;99.90;;;;;;5040707;28;20042;-70
2021/12/24 07:20:40;;;;;;;18.27;8.82;;;8.00;99.90;;;;;;5036724;28;20517;-71
2021/12/24 07:23:06;;;;;;;26.50;10.80;;;8.00;99.90;;;;;;5040123;28;20049;-70
2021/12/24 07:25:32;;;;;;;18.05;9.18;;;8.00;99.90;;;;;;5037829;28;20076;-70
2021/12/24 07:27:58;;;;;;;14.82;6.68;;;8.00;99.90;;;;;;5040126;28;20053;-71
2021/12/24 07:30:24;;;;;;;21.27;8.70;;;8.00;99.90;;;;;;5039222;28;20060;-69
2021/12/24 07:32:51;;;;;;;22.48;9.93;;;8.00;99.90;;;;;;5037922;28;20101;-69
2021/12/24 07:35:17;;;;;;;19.20;8.77;;;8.00;99.90;;;;;;5038232;28;20049;-72
2021/12/24 07:37:43;;;;;;;19.90;8.77;;;8.00;99.90;;;;;;5036674;28;20402;-71
2021/12/24 07:40:10;;;;;;;20.80;9.75;;;8.00;99.90;;;;;;5040278;28;20049;-70
2021/12/24 07:42:37;;;;;;;21.13;9.63;;;8.00;99.90;;;;;;5037623;28;20057;-70
2021/12/24 07:45:04;;;;;;;25.80;9.10;;;8.00;99.90;;;;;;5040143;28;20109;-69
2021/12/24 07:47:38;;;;;;;19.38;8.85;;;7.90;99.90;;;;;;5039046;28;20057;-70
2021/12/24 07:53:05;;;;;;;43.67;8.35;;;8.00;99.90;;;;;;5037167;28;20055;-70
2021/12/24 07:55:31;;;;;;;18.15;8.38;;;7.90;99.90;;;;;;5037919;28;20061;-70
2021/12/24 07:57:57;;;;;;;16.73;7.43;;;7.90;99.90;;;;;;5038279;28;20053;-71
2021/12/24 08:00:25;;;;;;;25.20;8.80;;;8.00;99.90;;;;;;5037561;28;20045;-71
2021/12/24 08:02:55;;;;;;;17.70;7.43;;;7.90;99.90;;;;;;5038073;28;20545;-70
2021/12/24 08:05:23;;;;;;;19.33;8.00;;;8.00;99.90;;;;;;5037964;28;20064;-70
2021/12/24 08:07:50;;;;;;;14.50;6.07;;;7.90;99.90;;;;;;5036786;28;20097;-71
2021/12/24 08:10:16;;;;;;;16.65;6.10;;;7.90;99.90;;;;;;5037820;28;20051;-70
2021/12/24 08:12:42;;;;;;;18.27;7.40;;;7.90;99.90;;;;;;5052714;28;20081;-69
2021/12/24 08:15:08;;;;;;;16.15;6.80;;;7.90;99.90;;;;;;5038973;28;20509;-71
2021/12/24 08:17:34;;;;;;;18.60;6.65;;;7.90;99.90;;;;;;5038792;28;20096;-70
2021/12/24 08:20:00;;;;;;;10.50;5.68;;;7.90;99.90;;;;;;5036163;28;20098;-72
2021/12/24 08:22:26;;;;;;;20.13;6.85;;;8.00;99.90;;;;;;5054034;28;20512;-71
2021/12/24 08:24:52;;;;;;;16.83;5.63;;;8.00;99.90;;;;;;5036640;28;20073;-72
2021/12/24 08:27:18;;;;;;;10.20;5.05;;;8.00;99.90;;;;;;5033077;28;20049;-70
2021/12/24 08:29:44;;;;;;;9.07;4.60;;;7.90;99.90;;;;;;5037370;28;20081;-69
2021/12/24 08:32:10;;;;;;;13.82;5.25;;;7.90;99.90;;;;;;5036916;28;20524;-72
2021/12/24 08:34:38;;;;;;;10.95;5.47;;;7.90;99.90;;;;;;5035976;28;20041;-69
2021/12/24 08:37:04;;;;;;;19.23;5.43;;;7.90;99.90;;;;;;5036930;28;20056;-69
2021/12/24 08:39:31;;;;;;;13.25;5.93;;;7.90;99.90;;;;;;5038438;28;20075;-69
2021/12/24 08:41:58;;;;;;;15.48;5.43;;;7.90;99.90;;;;;;5036232;28;20052;-68
2021/12/24 08:44:27;;;;;;;16.65;5.82;;;7.90;99.90;;;;;;5039171;28;20045;-70
2021/12/24 08:46:53;;;;;;;18.83;7.03;;;7.90;99.90;;;;;;5035952;28;20129;-69
2021/12/24 08:49:20;;;;;;;18.05;5.97;;;8.00;99.90;;;;;;5037682;28;20105;-69
2021/12/24 08:51:51;;;;;;;15.77;5.35;;;8.00;99.90;;;;;;5037573;28;20046;-68
2021/12/24 08:54:17;;;;;;;14.35;6.05;;;8.00;99.90;;;;;;5037188;28;20049;-70
2021/12/24 08:56:43;;;;;;;19.70;7.22;;;8.00;99.90;;;;;;5070473;28;20124;-69
2021/12/24 08:59:09;;;;;;;20.90;7.30;;;7.90;99.90;;;;;;5035853;28;20081;-69
2021/12/24 09:01:35;;;;;;;19.33;7.38;;;8.00;99.90;;;;;;5037078;28;20056;-70
2021/12/24 09:04:02;;;;;;;18.98;7.75;;;8.00;99.90;;;;;;5036486;28;20097;-69
2021/12/24 09:06:27;;;;;;;22.00;8.30;;;8.00;99.90;;;;;;5037039;28;20077;-70
2021/12/24 09:08:53;;;;;;;20.75;7.63;;;8.00;99.90;;;;;;5037338;28;20116;-69
2021/12/24 09:11:19;;;;;;;19.55;6.70;;;8.00;99.90;;;;;;5036742;28;20568;-70
2021/12/24 09:13:45;;;;;;;20.08;8.15;;;8.00;99.90;;;;;;5037131;28;20045;-70
2021/12/24 09:16:11;;;;;;;22.48;6.55;;;8.00;99.90;;;;;;5036131;28;20056;-69
2021/12/24 09:18:40;;;;;;;20.13;7.43;;;8.00;99.90;;;;;;5038118;28;20095;-70
2021/12/24 09:21:14;;;;;;;14.85;6.78;;;8.00;99.90;;;;;;5036260;28;20077;-69
2021/12/24 09:23:42;;;;;;;17.65;7.03;;;8.00;99.90;;;;;;5037552;28;20048;-70
2021/12/24 09:26:08;;;;;;;14.50;6.55;;;8.10;99.90;;;;;;5036726;28;20058;-69
2021/12/24 09:28:33;;;;;;;14.40;6.32;;;8.10;99.90;;;;;;5036118;28;20437;-71
2021/12/24 09:30:59;;;;;;;25.05;7.28;;;8.10;99.90;;;;;;5037058;28;20100;-72
2021/12/24 09:33:25;;;;;;;19.73;6.28;;;8.10;99.90;;;;;;5001397;28;20038;-70
2021/12/24 09:35:50;;;;;;;11.82;5.75;;;8.10;99.90;;;;;;5038557;28;20052;-71
2021/12/24 09:38:16;;;;;;;15.10;5.78;;;8.10;99.90;;;;;;5034691;28;20042;-72
2021/12/24 09:40:42;;;;;;;13.75;5.20;;;8.10;99.90;;;;;;5035638;28;20132;-71
2021/12/24 09:43:08;;;;;;;16.45;7.25;;;8.10;99.90;;;;;;5068151;28;20072;-72
2021/12/24 09:45:34;;;;;;;17.10;5.38;;;8.10;99.90;;;;;;5035790;28;20041;-71
2021/12/24 09:47:59;;;;;;;11.93;5.00;;;8.10;99.90;;;;;;5036083;28;20069;-71
2021/12/24 09:50:28;;;;;;;12.82;5.75;;;8.00;99.90;;;;;;5053063;28;20095;-72
2021/12/24 09:52:54;;;;;;;23.77;6.88;;;8.00;99.90;;;;;;5055498;28;20063;-70
2021/12/24 09:55:23;;;;;;;18.00;6.28;;;8.00;99.90;;;;;;5055382;28;20049;-71
2021/12/24 09:57:50;;;;;;;19.80;7.10;;;8.00;99.90;;;;;;5055911;28;20037;-72
2021/12/24 10:00:18;;;;;;;21.98;7.72;;;8.00;99.90;;;;;;5072346;28;20080;-70
2021/12/24 10:02:48;;;;;;;13.57;6.63;;;8.00;99.90;;;;;;5053892;28;20056;-71
2021/12/24 10:05:31;;;;;;;24.00;7.22;;;8.00;99.90;;;;;;5089208;28;20064;-71
2021/12/24 10:07:59;;;;;;;19.50;6.80;;;8.00;99.90;;;;;;5053672;28;20060;-71
2021/12/24 10:10:28;;;;;;;20.77;5.80;;;7.90;99.90;;;;;;5056335;28;20049;-70
2021/12/24 10:12:54;;;;;;;20.10;7.07;;;7.90;99.90;;;;;;5072741;28;20114;-70
2021/12/24 10:15:20;;;;;;;12.27;5.93;;;7.90;99.90;;;;;;5060331;28;20052;-70
2021/12/24 10:17:46;;;;;;;20.42;7.05;;;7.90;99.90;;;;;;5059623;28;20048;-71
2021/12/24 10:20:20;;;;;;;22.80;6.32;;;7.90;99.90;;;;;;5058726;28;20057;-70
2021/12/24 10:22:54;;;;;;;20.63;6.85;;;8.00;99.90;;;;;;5060163;28;20100;-71
2021/12/24 10:25:30;;;;;;;15.73;5.65;;;8.00;99.90;;;;;;5057463;28;20086;-71
2021/12/24 10:27:56;;;;;;;13.88;5.63;;;8.00;99.90;;;;;;5037806;28;20124;-71
2021/12/24 10:30:31;;;;;;;17.83;5.88;;;8.00;99.90;;;;;;5056043;28;20053;-70
2021/12/24 10:33:06;;;;;;;13.48;6.18;;;8.00;99.90;;;;;;5039200;28;20049;-72
2021/12/24 10:35:32;;;;;;;17.90;6.15;;;8.00;99.90;;;;;;5040165;28;20060;-71
2021/12/24 10:38:16;;;;;;;15.55;5.55;;;8.10;99.90;;;;;;5038176;28;20046;-71
2021/12/24 10:40:54;;;;;;;14.30;6.10;;;8.10;99.90;;;;;;5039283;28;20049;-71
2021/12/24 10:43:29;;;;;;;18.65;5.45;;;8.10;99.90;;;;;;5039416;28;20092;-71
2021/12/24 10:46:15;;;;;;;16.83;6.93;;;8.10;99.90;;;;;;5037418;28;20129;-70
2021/12/24 10:49:01;;;;;;;16.17;5.93;;;8.10;99.90;;;;;;5041096;28;20530;-73
2021/12/24 10:54:11;;;;;;;19.08;6.38;;;8.10;99.90;;;;;;5037888;28;20058;-70
2021/12/24 10:56:37;;;;;;;16.58;5.85;;;8.10;99.90;;;;;;5039693;28;20454;-71
2021/12/24 10:59:02;;;;;;;15.27;6.03;;;8.10;99.90;;;;;;5037034;28;20049;-70
2021/12/24 11:01:28;;;;;;;19.00;6.10;;;8.10;99.90;;;;;;5039531;28;20049;-71
2021/12/24 11:03:54;;;;;;;23.35;6.68;;;8.00;99.90;;;;;;5036887;28;20072;-69
2021/12/24 11:06:21;;;;;;;12.60;5.13;;;8.00;99.90;;;;;;5022712;28;20057;-70
2021/12/24 11:08:58;;;;;;;15.30;5.65;;;7.90;99.90;;;;;;5039561;28;20114;-69
2021/12/24 11:11:23;;;;;;;18.38;6.30;;;8.00;99.90;;;;;;5038980;28;20069;-70
2021/12/24 11:13:50;;;;;;;19.00;5.88;;;7.90;99.90;;;;;;5038993;28;20076;-70
2021/12/24 11:16:21;;;;;;;22.85;6.30;;;7.90;99.90;;;;;;5036713;28;20091;-70
2021/12/24 11:19:00;;;;;;;14.57;5.18;;;7.90;99.90;;;;;;5038637;28;20131;-69
2021/12/24 11:21:28;;;;;;;4.60;2.00;;;7.90;99.90;;;;;;5038731;28;20049;-69
2021/12/24 11:23:55;;;;;;;2.92;1.40;;;7.80;99.90;;;;;;5038323;28;20053;-71
2021/12/24 11:26:23;;;;;;;2.42;1.20;;;7.60;99.90;;;;;;5039650;28;20144;-69
2021/12/24 11:28:49;;;;;;;3.55;1.30;;;7.30;99.90;;;;;;5069995;28;20057;-69
2021/12/24 11:31:19;;;;;;;4.07;1.70;;;7.10;99.90;;;;;;5039941;28;20237;-69
2021/12/24 11:33:47;;;;;;;2.90;1.70;;;6.90;99.90;;;;;;5036512;28;20091;-69
2021/12/24 11:36:16;;;;;;;3.40;1.88;;;6.80;99.90;;;;;;5038065;28;20050;-69
2021/12/24 11:38:47;;;;;;;2.80;1.70;;;6.70;99.90;;;;;;5032492;28;20037;-69
2021/12/24 11:41:16;;;;;;;3.15;1.80;;;6.60;99.90;;;;;;5037850;28;20049;-69
2021/12/24 11:43:47;;;;;;;3.15;1.80;;;6.50;99.90;;;;;;5037771;28;20046;-69
2021/12/24 11:46:16;;;;;;;2.95;1.65;;;6.40;99.90;;;;;;5035829;28;20046;-70
2021/12/24 11:48:44;;;;;;;2.92;1.75;;;6.30;99.90;;;;;;5040054;28;20515;-70
2021/12/24 11:51:15;;;;;;;3.72;2.08;;;6.30;99.90;;;;;;5036282;28;20406;-70
2021/12/24 11:53:42;;;;;;;3.13;1.70;;;6.20;99.90;;;;;;5037329;28;20089;-70
2021/12/24 11:56:11;;;;;;;4.75;2.20;;;6.20;99.90;;;;;;5037316;28;20061;-70
2021/12/24 11:58:45;;;;;;;2.55;1.63;;;6.20;99.90;;;;;;5037013;28;20054;-70
2021/12/24 12:01:15;;;;;;;3.47;1.95;;;6.20;99.90;;;;;;5038221;28;20493;-70
2021/12/24 12:03:46;;;;;;;4.03;1.90;;;6.20;99.90;;;;;;5036267;28;20073;-69
2021/12/24 12:06:24;;;;;;;2.53;1.65;;;6.20;99.90;;;;;;5020764;28;20060;-70
2021/12/24 12:08:52;;;;;;;2.90;1.73;;;6.30;99.90;;;;;;5037401;28;20389;-69
2021/12/24 12:11:24;;;;;;;3.38;1.80;;;6.20;99.90;;;;;;5038001;28;20100;-70
2021/12/24 12:13:55;;;;;;;2.88;1.70;;;6.30;99.90;;;;;;5038994;28;20049;-70
2021/12/24 12:16:38;;;;;;;2.85;1.50;;;6.30;99.90;;;;;;5036777;28;20120;-70
2021/12/24 12:19:20;;;;;;;3.03;1.50;;;6.30;99.90;;;;;;5037998;28;20052;-70
2021/12/24 12:22:11;;;;;;;3.20;1.65;;;6.30;99.90;;;;;;5038637;28;20382;-70
2021/12/24 12:25:04;;;;;;;3.42;1.70;;;6.30;99.90;;;;;;5036940;28;20053;-69
2021/12/24 12:27:39;;;;;;;3.65;1.80;;;6.30;99.90;;;;;;5037737;28;20072;-70
2021/12/24 12:30:22;;;;;;;3.20;1.90;;;6.30;99.90;;;;;;5037588;28;20049;-70
2021/12/24 12:32:50;;;;;;;3.88;1.73;;;6.30;99.90;;;;;;5032347;28;20037;-70
2021/12/24 12:35:16;;;;;;;3.00;1.75;;;6.20;99.90;;;;;;5037960;28;20053;-70
2021/12/24 12:37:46;;;;;;;3.47;1.80;;;6.20;99.90;;;;;;5044443;28;20036;-70
2021/12/24 12:40:17;;;;;;;3.78;2.00;;;6.20;99.90;;;;;;5059261;28;20119;-70
2021/12/24 12:42:53;;;;;;;2.90;1.90;;;6.10;99.90;;;;;;5055521;28;20045;-70
2021/12/24 12:45:26;;;;;;;3.88;2.22;;;6.10;99.90;;;;;;5056087;28;20091;-70
2021/12/24 12:47:57;;;;;;;3.17;2.00;;;6.20;99.90;;;;;;5057050;28;20045;-70
2021/12/24 12:50:24;;;;;;;3.42;1.90;;;6.20;99.90;;;;;;5088744;28;20087;-70
2021/12/24 12:52:54;;;;;;;4.63;2.10;;;6.20;99.90;;;;;;5056883;28;20108;-70
2021/12/24 12:55:32;;;;;;;3.92;2.25;;;6.30;99.90;;;;;;5055383;28;20040;-70
2021/12/24 12:58:23;;;;;;;3.85;2.17;;;6.20;99.90;;;;;;5058266;28;20045;-70
2021/12/24 13:01:13;;;;;;;3.40;2.08;;;6.20;99.90;;;;;;5058235;28;20501;-70
2021/12/24 13:04:09;;;;;;;3.92;2.00;;;6.20;99.90;;;;;;5056060;28;20079;-70
2021/12/24 13:06:36;;;;;;;3.72;2.20;;;6.20;99.90;;;;;;5044497;28;20150;-70
2021/12/24 13:09:05;;;;;;;3.72;2.40;;;6.20;99.90;;;;;;5056956;28;20049;-70
2021/12/24 13:11:36;;;;;;;4.28;2.60;;;6.20;99.90;;;;;;5054722;28;20045;-70
2021/12/24 13:14:03;;;;;;;4.65;2.53;;;6.20;99.90;;;;;;5057202;28;20041;-70
2021/12/24 13:16:37;;;;;;;4.82;2.70;;;6.20;99.90;;;;;;5056068;28;20045;-70
2021/12/24 13:24:50;;;;;;;4.03;2.65;;;6.20;99.90;;;;;;5088094;28;20103;-70
2021/12/24 13:27:18;;;;;;;4.07;2.83;;;6.20;99.90;;;;;;5057760;28;20126;-70
2021/12/24 13:29:44;;;;;;;5.95;3.40;;;6.10;99.90;;;;;;5036519;28;20045;-70
2021/12/24 13:32:10;;;;;;;5.10;3.30;;;6.10;99.90;;;;;;5036221;28;20080;-70
2021/12/24 13:34:36;;;;;;;5.38;3.40;;;6.20;99.90;;;;;;5036496;28;20096;-70
2021/12/24 13:37:15;;;;;;;4.85;2.70;;;6.20;99.90;;;;;;5036548;28;20556;-70
2021/12/24 13:39:52;;;;;;;7.05;3.65;;;6.10;99.90;;;;;;5037483;28;20057;-70
2021/12/24 13:42:19;;;;;;;5.65;3.65;;;6.10;99.90;;;;;;5035876;28;20050;-70
2021/12/24 13:44:48;;;;;;;6.03;3.70;;;6.10;99.90;;;;;;5036833;28;20072;-70
2021/12/24 13:47:43;;;;;;;5.13;2.88;;;6.10;99.90;;;;;;5037071;28;20481;-70
2021/12/24 13:55:36;;;;;;;6.35;3.85;;;6.10;99.90;;;;;;5025252;28;20061;-70
2021/12/24 13:58:08;;;;;;;5.88;3.40;;;6.20;99.90;;;;;;5041224;28;20545;-70
2021/12/24 14:00:38;;;;;;;6.20;3.70;;;6.20;99.90;;;;;;5040450;28;20060;-70
2021/12/24 14:03:09;;;;;;;5.97;3.25;;;6.10;99.90;;;;;;5071657;28;20497;-70
2021/12/24 14:05:50;;;;;;;5.53;3.92;;;6.10;99.90;;;;;;5040576;28;20041;-70
2021/12/24 14:08:22;;;;;;;6.03;3.88;;;6.10;99.90;;;;;;5071729;28;20071;-71
2021/12/24 14:11:00;;;;;;;5.53;3.35;;;6.10;99.90;;;;;;5040117;28;20579;-70
2021/12/24 14:13:30;;;;;;;6.70;4.00;;;6.10;99.90;;;;;;5038297;28;20083;-70
2021/12/24 14:24:30;;;;;;;5.22;3.42;;;6.00;99.90;;;;;;5040239;28;20077;-72
2021/12/24 14:27:08;;;;;;;5.78;4.13;;;6.00;99.90;;;;;;5056631;28;20061;-74
2021/12/24 14:29:34;;;;;;;5.38;3.45;;;6.00;99.90;;;;;;5037395;28;20045;-73
2021/12/24 14:32:06;;;;;;;6.43;4.07;;;6.00;99.90;;;;;;5039688;28;20119;-73
2021/12/24 14:34:34;;;;;;;6.43;3.50;;;6.00;99.90;;;;;;5039239;28;20083;-72
2021/12/24 14:37:23;;;;;;;6.82;3.90;;;6.00;99.90;;;;;;5037853;28;20056;-73
2021/12/24 14:39:59;;;;;;;6.28;3.60;;;6.00;99.90;;;;;;5039543;28;20068;-73
2021/12/24 14:42:43;;;;;;;5.70;3.20;;;6.00;99.90;;;;;;5037582;28;20112;-73
2021/12/24 14:45:29;;;;;;;5.32;3.33;;;6.00;99.90;;;;;;5040199;28;20320;-73
2021/12/24 14:48:15;;;;;;;4.35;3.03;;;6.00;99.90;;;;;;5073158;28;20417;-73
2021/12/24 14:51:08;;;;;;;4.95;2.92;;;6.00;99.90;;;;;;5070135;28;20056;-73
2021/12/24 14:53:42;;;;;;;4.55;2.70;;;6.00;99.90;;;;;;5038113;28;20042;-73
2021/12/24 14:56:19;;;;;;;5.78;2.80;;;5.90;99.90;;;;;;5038628;28;20037;-73
2021/12/24 14:58:47;;;;;;;5.13;3.40;;;5.90;99.90;;;;;;5020230;28;20541;-73